createdAt,value
2024-02-17T00:00:07.160Z,20.40
2024-02-17T00:02:34.991Z,20.50
2024-02-17T00:05:03.112Z,20.50
2024-02-17T00:07:30.452Z,20.50
2024-02-17T00:09:58.093Z,20.50
2024-02-17T00:12:25.300Z,20.40
2024-02-17T00:14:52.289Z,20.50
2024-02-17T00:17:19.299Z,20.40
2024-02-17T00:19:48.012Z,20.50
2024-02-17T00:22:15.740Z,20.50
2024-02-17T00:24:42.811Z,20.50
2024-02-17T00:27:10.806Z,20.50
2024-02-17T00:29:37.953Z,20.50
2024-02-17T00:32:05.245Z,20.50
2024-02-17T00:34:32.554Z,20.50
2024-02-17T00:37:00.757Z,20.50
2024-02-17T00:39:27.779Z,20.50
2024-02-17T00:41:55.264Z,20.50
2024-02-17T00:44:22.250Z,20.50
2024-02-17T00:46:49.314Z,20.50
2024-02-17T00:49:16.346Z,20.50
2024-02-17T00:51:43.326Z,20.50
2024-02-17T00:54:10.404Z,20.50
2024-02-17T00:56:37.346Z,20.50
2024-02-17T00:59:04.342Z,20.50
2024-02-17T01:01:38.692Z,20.50
2024-02-17T01:04:07.668Z,20.50
2024-02-17T01:06:35.004Z,20.50
2024-02-17T01:09:02.347Z,20.50
2024-02-17T01:11:29.549Z,20.50
2024-02-17T01:13:56.584Z,20.50
2024-02-17T01:16:23.620Z,20.50
2024-02-17T01:18:50.919Z,20.50
2024-02-17T01:21:18.442Z,20.50
2024-02-17T01:23:45.381Z,20.50
2024-02-17T01:26:12.310Z,20.50
2024-02-17T01:28:39.215Z,20.50
2024-02-17T01:31:06.023Z,20.50
2024-02-17T01:33:33.019Z,20.50
2024-02-17T01:36:00.051Z,20.50
2024-02-17T01:38:27.021Z,20.50
2024-02-17T01:40:53.959Z,20.50
2024-02-17T01:43:21.210Z,20.50
2024-02-17T01:45:48.931Z,20.50
2024-02-17T01:48:16.531Z,20.50
2024-02-17T01:50:45.072Z,20.50
2024-02-17T01:53:12.742Z,20.50
2024-02-17T01:55:40.447Z,20.50
2024-02-17T01:58:07.970Z,20.50
2024-02-17T02:00:35.719Z,20.50
2024-02-17T02:03:03.046Z,20.50
2024-02-17T02:05:30.056Z,20.50
2024-02-17T02:07:57.097Z,20.50
2024-02-17T02:10:24.150Z,20.50
2024-02-17T02:12:51.142Z,20.50
2024-02-17T02:15:18.323Z,20.50
2024-02-17T02:17:46.353Z,20.50
2024-02-17T02:20:15.969Z,20.50
2024-02-17T02:22:43.381Z,20.50
2024-02-17T02:25:24.433Z,20.50
2024-02-17T02:27:51.534Z,20.50
2024-02-17T02:30:18.650Z,20.50
2024-02-17T02:32:45.624Z,20.50
2024-02-17T02:35:12.573Z,20.50
2024-02-17T02:37:39.558Z,20.50
2024-02-17T02:40:07.360Z,20.50
2024-02-17T02:42:34.349Z,20.50
2024-02-17T02:45:01.275Z,20.50
2024-02-17T02:47:28.183Z,20.50
2024-02-17T02:49:55.084Z,20.50
2024-02-17T02:52:22.001Z,20.50
2024-02-17T02:54:49.111Z,20.50
2024-02-17T02:57:16.197Z,20.50
2024-02-17T02:59:43.096Z,20.50
2024-02-17T03:02:10.093Z,20.50
2024-02-17T03:04:37.066Z,20.50
2024-02-17T03:07:04.071Z,20.50
2024-02-17T03:09:31.053Z,20.50
2024-02-17T03:11:57.982Z,20.50
2024-02-17T03:14:25.109Z,20.50
2024-02-17T03:16:51.983Z,20.50
2024-02-17T03:19:19.023Z,20.50
2024-02-17T03:21:46.163Z,20.50
2024-02-17T03:24:13.156Z,20.50
2024-02-17T03:26:40.052Z,20.60
2024-02-17T03:29:07.010Z,20.50
2024-02-17T03:31:33.889Z,20.60
2024-02-17T03:34:02.015Z,20.60
2024-02-17T03:36:29.084Z,20.50
2024-02-17T03:38:56.041Z,20.60
2024-02-17T03:41:23.296Z,20.60
2024-02-17T03:43:50.432Z,20.60
2024-02-17T03:46:17.328Z,20.60
2024-02-17T03:48:44.333Z,20.60
2024-02-17T03:51:11.361Z,20.60
2024-02-17T03:53:38.320Z,20.60
2024-02-17T03:56:05.636Z,20.60
2024-02-17T03:58:32.569Z,20.60
2024-02-17T04:00:59.617Z,20.60
2024-02-17T04:03:29.157Z,20.50
2024-02-17T04:05:56.389Z,20.60
2024-02-17T04:08:23.368Z,20.60
2024-02-17T04:10:50.546Z,20.60
2024-02-17T04:13:17.863Z,20.60
2024-02-17T04:15:45.014Z,20.60
2024-02-17T04:18:12.595Z,20.60
2024-02-17T04:20:39.889Z,20.60
2024-02-17T04:23:07.617Z,20.60
2024-02-17T04:25:36.843Z,20.60
2024-02-17T04:28:05.952Z,20.60
2024-02-17T04:30:33.391Z,20.60
2024-02-17T04:33:00.916Z,20.60
2024-02-17T04:35:28.313Z,20.60
2024-02-17T04:37:55.490Z,20.60
2024-02-17T04:40:22.581Z,20.60
2024-02-17T04:42:53.235Z,20.60
2024-02-17T04:45:20.688Z,20.60
2024-02-17T04:47:47.811Z,20.60
2024-02-17T04:50:14.821Z,20.60
2024-02-17T04:52:44.792Z,20.60
2024-02-17T04:55:12.574Z,20.60
2024-02-17T04:57:39.615Z,20.60
2024-02-17T05:00:07.634Z,20.60
2024-02-17T05:02:39.038Z,20.60
2024-02-17T05:05:06.349Z,20.60
2024-02-17T05:07:33.705Z,20.60
2024-02-17T05:10:00.601Z,20.60
2024-02-17T05:12:27.909Z,20.60
2024-02-17T05:14:55.044Z,20.60
2024-02-17T05:17:21.997Z,20.60
2024-02-17T05:19:49.271Z,20.60
2024-02-17T05:22:16.339Z,20.60
2024-02-17T05:24:47.014Z,20.60
2024-02-17T05:27:14.583Z,20.60
2024-02-17T05:29:42.272Z,20.60
2024-02-17T05:32:09.501Z,20.60
2024-02-17T05:34:37.919Z,20.60
2024-02-17T05:37:05.934Z,20.60
2024-02-17T05:39:33.771Z,20.60
2024-02-17T05:42:01.731Z,20.60
2024-02-17T05:44:29.047Z,20.60
2024-02-17T05:46:56.502Z,20.60
2024-02-17T05:49:24.254Z,20.60
2024-02-17T05:51:52.581Z,20.60
2024-02-17T05:54:20.675Z,20.60
2024-02-17T05:56:47.785Z,20.60
2024-02-17T05:59:15.011Z,20.60
2024-02-17T06:01:43.031Z,20.60
2024-02-17T06:04:10.293Z,20.60
2024-02-17T06:06:37.483Z,20.60
2024-02-17T06:09:04.581Z,20.60
2024-02-17T06:11:31.637Z,20.60
2024-02-17T06:13:58.639Z,20.60
2024-02-17T06:16:29.549Z,20.60
2024-02-17T06:19:15.496Z,20.60
2024-02-17T06:21:42.604Z,20.60
2024-02-17T06:24:09.694Z,20.60
2024-02-17T06:26:37.036Z,20.60
2024-02-17T06:29:07.257Z,20.60
2024-02-17T06:31:39.547Z,20.60
2024-02-17T06:34:07.821Z,20.60
2024-02-17T06:36:35.379Z,20.60
2024-02-17T06:39:02.439Z,20.60
2024-02-17T06:41:29.936Z,20.60
2024-02-17T06:43:56.903Z,20.60
2024-02-17T06:46:24.594Z,20.60
2024-02-17T06:48:52.815Z,20.60
2024-02-17T06:51:21.489Z,20.60
2024-02-17T06:53:48.868Z,20.60
2024-02-17T06:56:16.427Z,20.60
2024-02-17T06:58:43.492Z,20.60
2024-02-17T07:01:11.100Z,20.60
2024-02-17T07:03:38.357Z,20.60
2024-02-17T07:06:06.170Z,20.60
2024-02-17T07:08:33.538Z,20.60
2024-02-17T07:11:00.712Z,20.60
2024-02-17T07:13:28.014Z,20.60
2024-02-17T07:15:55.215Z,20.60
2024-02-17T07:18:22.583Z,20.60
2024-02-17T07:20:53.296Z,20.60
2024-02-17T07:23:22.467Z,20.60
2024-02-17T07:25:49.545Z,20.60
2024-02-17T07:28:17.372Z,20.60
2024-02-17T07:30:45.470Z,20.60
2024-02-17T07:33:13.607Z,20.70
2024-02-17T07:35:45.737Z,20.70
2024-02-17T07:38:13.013Z,20.70
2024-02-17T07:40:40.194Z,20.70
2024-02-17T07:43:07.538Z,20.70
2024-02-17T07:45:34.746Z,20.70
2024-02-17T07:48:01.913Z,20.70
2024-02-17T07:50:29.043Z,20.70
2024-02-17T07:52:56.049Z,20.70
2024-02-17T07:55:23.352Z,20.70
2024-02-17T07:57:50.816Z,20.70
2024-02-17T08:00:18.597Z,20.70
2024-02-17T08:02:47.408Z,20.80
2024-02-17T08:05:16.206Z,20.70
2024-02-17T08:07:44.327Z,20.70
2024-02-17T08:10:15.017Z,20.80
2024-02-17T08:12:42.185Z,20.70
2024-02-17T08:15:09.589Z,20.70
2024-02-17T08:17:36.765Z,20.80
2024-02-17T08:20:05.823Z,20.70
2024-02-17T08:22:34.285Z,20.70
2024-02-17T08:25:02.296Z,20.80
2024-02-17T08:27:29.695Z,20.80
2024-02-17T08:29:56.747Z,20.80
2024-02-17T08:32:23.786Z,20.80
2024-02-17T08:34:51.382Z,20.80
2024-02-17T08:37:18.544Z,20.80
2024-02-17T08:39:49.705Z,20.80
2024-02-17T08:42:16.964Z,20.80
2024-02-17T08:44:43.856Z,20.80
2024-02-17T08:47:10.951Z,20.80
2024-02-17T08:49:37.985Z,20.80
2024-02-17T08:52:05.143Z,20.80
2024-02-17T08:54:32.144Z,20.80
2024-02-17T08:56:59.088Z,20.80
2024-02-17T08:59:26.562Z,20.80
2024-02-17T09:01:53.495Z,20.80
2024-02-17T09:04:20.531Z,20.80
2024-02-17T09:06:47.650Z,20.80
2024-02-17T09:09:15.374Z,20.80
2024-02-17T09:11:42.358Z,20.80
2024-02-17T09:14:09.379Z,20.80
2024-02-17T09:16:36.304Z,20.80
2024-02-17T09:19:03.457Z,20.80
2024-02-17T09:21:30.460Z,20.80
2024-02-17T09:23:57.405Z,20.80
2024-02-17T09:26:24.981Z,20.80
2024-02-17T09:28:52.002Z,20.80
2024-02-17T09:31:18.976Z,20.80
2024-02-17T09:33:46.041Z,20.80
2024-02-17T09:36:13.244Z,20.80
2024-02-17T09:38:40.344Z,20.80
2024-02-17T09:41:07.342Z,20.80
2024-02-17T09:43:35.008Z,20.80
2024-02-17T09:46:03.018Z,20.80
2024-02-17T09:48:30.441Z,20.80
2024-02-17T09:50:58.729Z,20.80
2024-02-17T09:53:26.389Z,20.80
2024-02-17T09:55:53.400Z,20.80
2024-02-17T09:58:20.343Z,20.80
2024-02-17T10:00:49.570Z,20.80
2024-02-17T10:03:18.623Z,20.80
2024-02-17T10:05:45.913Z,20.80
2024-02-17T10:08:13.563Z,20.80
2024-02-17T10:10:44.376Z,20.80
2024-02-17T10:13:21.777Z,20.80
2024-02-17T10:15:48.763Z,20.80
2024-02-17T10:18:21.258Z,20.80
2024-02-17T10:20:55.538Z,20.80
2024-02-17T10:23:23.494Z,20.80
2024-02-17T10:25:50.387Z,20.80
2024-02-17T10:28:17.795Z,20.80
2024-02-17T10:30:44.845Z,20.80
2024-02-17T10:33:12.222Z,20.80
2024-02-17T10:35:39.576Z,20.70
2024-02-17T10:38:10.782Z,20.70
2024-02-17T10:40:39.411Z,20.70
2024-02-17T10:43:06.573Z,20.70
2024-02-17T10:45:33.661Z,20.70
2024-02-17T10:48:11.195Z,20.70
2024-02-17T10:50:45.666Z,20.80
2024-02-17T10:53:31.643Z,20.70
2024-02-17T10:56:00.975Z,20.70
2024-02-17T10:58:28.068Z,20.70
2024-02-17T11:00:55.754Z,20.70
2024-02-17T11:03:32.632Z,20.70
2024-02-17T11:06:05.104Z,20.70
2024-02-17T11:08:36.355Z,20.70
2024-02-17T11:11:21.941Z,20.70
2024-02-17T11:13:48.877Z,20.70
2024-02-17T11:16:15.853Z,20.70
2024-02-17T11:18:47.521Z,20.70
2024-02-17T11:21:14.518Z,20.70
2024-02-17T11:23:42.945Z,20.70
2024-02-17T11:26:25.429Z,20.70
2024-02-17T11:29:03.026Z,20.70
2024-02-17T11:31:34.019Z,20.70
2024-02-17T11:34:02.619Z,20.70
2024-02-17T11:36:33.029Z,20.70
2024-02-17T11:39:01.332Z,20.70
2024-02-17T11:41:29.454Z,20.70
2024-02-17T11:43:56.703Z,20.70
2024-02-17T11:46:24.511Z,20.70
2024-02-17T11:48:52.367Z,20.70
2024-02-17T11:51:25.645Z,20.70
2024-02-17T11:53:55.471Z,20.70
2024-02-17T11:56:24.062Z,20.70
2024-02-17T11:58:51.907Z,20.60
2024-02-17T12:01:19.160Z,20.70
2024-02-17T12:03:46.825Z,20.70
2024-02-17T12:06:14.275Z,20.70
2024-02-17T12:08:41.739Z,20.60
2024-02-17T12:11:09.426Z,20.70
2024-02-17T12:13:37.071Z,20.60
2024-02-17T12:16:09.419Z,20.60
2024-02-17T12:18:41.620Z,20.60
2024-02-17T12:21:11.346Z,20.70
2024-02-17T12:23:41.430Z,20.70
2024-02-17T12:26:16.873Z,20.70
2024-02-17T12:28:52.586Z,20.70
2024-02-17T12:31:21.069Z,20.70
2024-02-17T12:33:52.111Z,20.70
2024-02-17T12:36:23.540Z,20.70
2024-02-17T12:39:00.855Z,20.60
2024-02-17T12:41:28.750Z,20.60
2024-02-17T12:43:56.532Z,20.60
2024-02-17T12:46:29.595Z,20.70
2024-02-17T12:48:57.913Z,20.60
2024-02-17T12:51:25.389Z,20.60
2024-02-17T12:53:52.620Z,20.60
2024-02-17T12:56:22.489Z,20.60
2024-02-17T12:58:52.154Z,20.60
2024-02-17T13:01:20.265Z,20.60
2024-02-17T13:03:49.190Z,20.60
2024-02-17T13:06:16.801Z,20.60
2024-02-17T13:08:44.265Z,20.60
2024-02-17T13:11:11.474Z,20.60
2024-02-17T13:13:38.912Z,20.60
2024-02-17T13:16:06.921Z,20.60
2024-02-17T13:18:35.690Z,20.60
2024-02-17T13:21:03.807Z,20.50
2024-02-17T13:23:30.837Z,20.60
2024-02-17T13:25:57.709Z,20.50
2024-02-17T13:28:24.688Z,20.60
2024-02-17T13:30:51.735Z,20.50
2024-02-17T13:33:18.794Z,20.50
2024-02-17T13:35:46.019Z,20.50
2024-02-17T13:38:21.901Z,20.50
2024-02-17T13:40:56.303Z,20.50
2024-02-17T13:43:23.331Z,20.50
2024-02-17T13:45:50.388Z,20.50
2024-02-17T13:48:17.625Z,20.50
2024-02-17T13:50:46.280Z,20.50
2024-02-17T13:53:13.357Z,20.40
2024-02-17T13:55:42.505Z,20.50
2024-02-17T13:58:11.127Z,20.40
2024-02-17T14:00:40.054Z,20.40
2024-02-17T14:03:07.533Z,20.40
2024-02-17T14:05:34.511Z,20.40
2024-02-17T14:08:01.495Z,20.40
2024-02-17T14:10:28.438Z,20.40
2024-02-17T14:12:55.672Z,20.40
2024-02-17T14:15:23.071Z,20.40
2024-02-17T14:17:50.093Z,20.40
2024-02-17T14:20:17.298Z,20.40
2024-02-17T14:22:44.556Z,20.40
2024-02-17T14:25:12.070Z,20.40
2024-02-17T14:27:39.224Z,20.40
2024-02-17T14:30:08.264Z,20.40
2024-02-17T14:32:35.252Z,20.40
2024-02-17T14:35:02.982Z,20.30
2024-02-17T14:37:30.077Z,20.30
2024-02-17T14:39:58.849Z,20.30
2024-02-17T14:42:26.307Z,20.30
2024-02-17T14:44:53.241Z,20.30
2024-02-17T14:47:20.202Z,20.30
2024-02-17T14:49:47.315Z,20.30
2024-02-17T14:52:14.348Z,20.30
2024-02-17T14:54:44.569Z,20.30
2024-02-17T14:57:12.980Z,20.30
2024-02-17T14:59:40.097Z,20.30
2024-02-17T15:02:07.674Z,20.30
2024-02-17T15:04:34.853Z,20.30
2024-02-17T15:07:02.586Z,20.30
2024-02-17T15:09:29.665Z,20.30
2024-02-17T15:12:00.026Z,20.30
2024-02-17T15:14:28.908Z,20.30
2024-02-17T15:16:56.581Z,20.30
2024-02-17T15:19:23.706Z,20.30
2024-02-17T15:21:50.864Z,20.20
2024-02-17T15:24:18.691Z,20.20
2024-02-17T15:26:45.949Z,20.20
2024-02-17T15:29:12.959Z,20.20
2024-02-17T15:31:39.980Z,20.20
2024-02-17T15:34:06.954Z,20.20
2024-02-17T15:36:34.193Z,20.20
2024-02-17T15:39:01.116Z,20.20
2024-02-17T15:41:28.196Z,20.20
2024-02-17T15:43:55.081Z,20.20
2024-02-17T15:46:22.935Z,20.20
2024-02-17T15:48:50.052Z,20.10
2024-02-17T15:51:17.047Z,20.10
2024-02-17T15:53:44.644Z,20.10
2024-02-17T15:56:17.838Z,20.10
2024-02-17T15:58:45.705Z,20.10
2024-02-17T16:01:13.346Z,20.10
2024-02-17T16:03:40.613Z,20.10
2024-02-17T16:06:08.250Z,20.10
2024-02-17T16:08:37.472Z,20.10
2024-02-17T16:11:05.740Z,20.10
2024-02-17T16:13:34.077Z,20.10
2024-02-17T16:16:01.412Z,20.10
2024-02-17T16:18:31.489Z,20.10
2024-02-17T16:21:02.141Z,20.10
2024-02-17T16:23:32.307Z,20.10
2024-02-17T16:25:59.254Z,20.10
2024-02-17T16:28:26.328Z,20.10
2024-02-17T16:30:55.220Z,20.10
2024-02-17T16:33:25.389Z,20.10
2024-02-17T16:35:52.375Z,20.00
2024-02-17T16:38:19.318Z,20.00
2024-02-17T16:40:46.240Z,20.00
2024-02-17T16:43:13.125Z,20.00
2024-02-17T16:45:40.260Z,20.10
2024-02-17T16:48:08.320Z,20.00
2024-02-17T16:50:35.272Z,20.00
2024-02-17T16:53:02.177Z,20.00
2024-02-17T16:55:29.432Z,20.00
2024-02-17T16:57:56.922Z,20.00
2024-02-17T17:00:24.044Z,20.00
2024-02-17T17:02:51.504Z,20.00
2024-02-17T17:05:18.789Z,20.00
2024-02-17T17:07:46.080Z,20.00
2024-02-17T17:10:13.668Z,20.00
2024-02-17T17:12:40.665Z,20.00
2024-02-17T17:15:09.763Z,19.90
2024-02-17T17:17:37.471Z,19.90
2024-02-17T17:20:05.262Z,19.90
2024-02-17T17:25:03.613Z,19.90
2024-02-17T17:27:31.267Z,19.90
2024-02-17T17:29:58.617Z,19.90
2024-02-17T17:32:26.801Z,19.90
2024-02-17T17:34:53.810Z,19.90
2024-02-17T17:37:20.990Z,19.90
2024-02-17T17:39:47.949Z,19.90
2024-02-17T17:42:15.048Z,19.90
2024-02-17T17:44:42.062Z,19.90
2024-02-17T17:47:08.962Z,19.90
2024-02-17T17:49:36.104Z,19.90
2024-02-17T17:52:03.475Z,19.80
2024-02-17T17:54:30.596Z,19.90
2024-02-17T17:56:57.520Z,19.80
2024-02-17T17:59:24.384Z,19.80
2024-02-17T18:01:51.314Z,19.80
2024-02-17T18:04:18.317Z,19.80
2024-02-17T18:06:45.754Z,19.80
2024-02-17T18:09:12.735Z,19.80
2024-02-17T18:11:40.933Z,19.80
2024-02-17T18:14:07.896Z,19.80
2024-02-17T18:16:34.795Z,19.80
2024-02-17T18:19:01.939Z,19.80
2024-02-17T18:21:28.997Z,19.80
2024-02-17T18:23:55.905Z,19.80
2024-02-17T18:26:22.959Z,19.80
2024-02-17T18:28:51.101Z,19.80
2024-02-17T18:31:18.150Z,19.80
2024-02-17T18:33:46.799Z,19.70
2024-02-17T18:36:17.930Z,19.70
2024-02-17T18:38:45.862Z,19.70
2024-02-17T18:41:14.620Z,19.70
2024-02-17T18:43:43.596Z,19.70
2024-02-17T18:46:11.776Z,19.70
2024-02-17T18:48:39.007Z,19.70
2024-02-17T18:51:08.235Z,19.70
2024-02-17T18:53:37.407Z,19.70
2024-02-17T18:56:04.598Z,19.70
2024-02-17T18:58:31.598Z,19.70
2024-02-17T19:00:58.742Z,19.70
2024-02-17T19:03:25.743Z,19.70
2024-02-17T19:05:52.921Z,19.70
2024-02-17T19:08:20.962Z,19.70
2024-02-17T19:10:48.955Z,19.70
2024-02-17T19:13:15.969Z,19.70
2024-02-17T19:15:42.897Z,19.70
2024-02-17T19:18:09.859Z,19.70
2024-02-17T19:20:36.817Z,19.70
2024-02-17T19:23:08.151Z,19.70
2024-02-17T19:25:35.177Z,19.70
2024-02-17T19:28:02.137Z,19.60
2024-02-17T19:30:29.133Z,19.60
2024-02-17T19:32:56.164Z,19.60
2024-02-17T19:35:23.149Z,19.60
2024-02-17T19:37:50.143Z,19.60
2024-02-17T19:40:19.201Z,19.60
2024-02-17T19:42:47.077Z,19.60
2024-02-17T19:45:14.354Z,19.60
2024-02-17T19:47:41.466Z,19.60
2024-02-17T19:50:11.007Z,19.60
2024-02-17T19:52:38.806Z,19.60
2024-02-17T19:55:06.436Z,19.60
2024-02-17T19:57:34.291Z,19.60
2024-02-17T20:00:01.973Z,19.60
2024-02-17T20:02:31.770Z,19.60
2024-02-17T20:04:59.546Z,19.60
2024-02-17T20:07:28.093Z,19.60
2024-02-17T20:09:55.279Z,19.60
2024-02-17T20:12:26.244Z,19.60
2024-02-17T20:14:54.269Z,19.60
2024-02-17T20:17:29.054Z,19.60
2024-02-17T20:20:04.136Z,19.60
2024-02-17T20:22:31.169Z,19.60
2024-02-17T20:24:59.115Z,19.60
2024-02-17T20:27:28.195Z,19.50
2024-02-17T20:29:55.393Z,19.50
2024-02-17T20:32:22.286Z,19.60
2024-02-17T20:34:49.668Z,19.50
2024-02-17T20:37:16.669Z,19.50
2024-02-17T20:39:43.580Z,19.50
2024-02-17T20:42:11.864Z,19.50
2024-02-17T20:44:39.130Z,19.50
2024-02-17T20:47:06.637Z,19.50
2024-02-17T20:49:33.626Z,19.50
2024-02-17T20:52:00.701Z,19.50
2024-02-17T20:54:27.712Z,19.50
2024-02-17T20:56:54.718Z,19.50
2024-02-17T20:59:22.435Z,19.50
2024-02-17T21:01:49.778Z,19.50
2024-02-17T21:04:17.032Z,19.50
2024-02-17T21:06:44.174Z,19.50
2024-02-17T21:09:11.128Z,19.40
2024-02-17T21:11:38.029Z,19.50
2024-02-17T21:14:07.186Z,19.50
2024-02-17T21:16:34.018Z,19.50
2024-02-17T21:19:01.101Z,19.50
2024-02-17T21:21:28.525Z,19.50
2024-02-17T21:23:56.117Z,19.40
2024-02-17T21:26:23.274Z,19.40
2024-02-17T21:28:50.149Z,19.40
2024-02-17T21:31:17.170Z,19.40
2024-02-17T21:33:44.284Z,19.40
2024-02-17T21:36:14.447Z,19.40
2024-02-17T21:38:42.187Z,19.40
2024-02-17T21:41:10.340Z,19.40
2024-02-17T21:43:37.310Z,19.40
2024-02-17T21:46:04.310Z,19.40
2024-02-17T21:48:31.472Z,19.40
2024-02-17T21:50:58.427Z,19.40
2024-02-17T21:53:25.360Z,19.40
2024-02-17T21:55:52.985Z,19.40
2024-02-17T21:58:20.123Z,19.40
2024-02-17T22:00:47.223Z,19.40
2024-02-17T22:03:14.413Z,19.40
2024-02-17T22:05:41.413Z,19.40
2024-02-17T22:08:08.309Z,19.40
2024-02-17T22:10:35.172Z,19.40
2024-02-17T22:13:02.119Z,19.40
2024-02-17T22:15:29.168Z,19.40
2024-02-17T22:17:56.198Z,19.40
2024-02-17T22:20:23.118Z,19.40
2024-02-17T22:22:49.989Z,19.40
2024-02-17T22:25:16.944Z,19.40
2024-02-17T22:27:44.701Z,19.40
2024-02-17T22:30:11.985Z,19.40
2024-02-17T22:32:39.653Z,19.30
2024-02-17T22:35:07.210Z,19.30
2024-02-17T22:37:34.213Z,19.30
2024-02-17T22:40:01.288Z,19.30
2024-02-17T22:42:28.387Z,19.30
2024-02-17T22:44:55.381Z,19.30
2024-02-17T22:47:22.253Z,19.30
2024-02-17T22:49:49.446Z,19.30
2024-02-17T22:52:16.484Z,19.30
2024-02-17T22:54:43.363Z,19.30
2024-02-17T22:57:11.080Z,19.30
2024-02-17T22:59:42.839Z,19.30
2024-02-17T23:02:10.157Z,19.30
2024-02-17T23:04:37.141Z,19.30
2024-02-17T23:07:04.405Z,19.30
2024-02-17T23:09:32.182Z,19.30
2024-02-17T23:11:59.484Z,19.30
2024-02-17T23:14:26.611Z,19.20
2024-02-17T23:16:53.608Z,19.20
2024-02-17T23:19:20.668Z,19.20
2024-02-17T23:21:47.851Z,19.20
2024-02-17T23:24:15.890Z,19.20
2024-02-17T23:26:43.997Z,19.20
2024-02-17T23:29:13.083Z,19.20
2024-02-17T23:31:40.079Z,19.20
2024-02-17T23:34:07.191Z,19.20
2024-02-17T23:36:34.330Z,19.20
2024-02-17T23:39:01.223Z,19.20
2024-02-17T23:41:28.245Z,19.20
2024-02-17T23:43:56.261Z,19.20
2024-02-17T23:46:23.231Z,19.20
2024-02-17T23:48:50.130Z,19.20
2024-02-17T23:51:17.091Z,19.20
2024-02-17T23:53:43.957Z,19.20
2024-02-17T23:56:11.861Z,19.20
2024-02-17T23:58:38.706Z,19.20
